Time;durP1;ratioP1;P1;durP2;ratioP2;P2;SDS_P1;SDS_P2;PMS_P1;PMS_P2;Temp;Humidity;BMP_temperature;BMP_pressure;BME280_temperature;BME280_humidity;BME280_pressure;Samples;Min_cycle;Max_cycle;Signal;HPM_P1;HPM_P2
2022/07/18 00:01:44;;;;;;;3.70;2.00;;;;;;;;;;5045100;28;20041;-82
2022/07/18 00:04:10;;;;;;;3.85;2.15;;;;;;;;;;5029286;28;20037;-82
2022/07/18 00:06:35;;;;;;;3.33;2.08;;;;;;;;;;5028955;28;20037;-82
2022/07/18 00:09:02;;;;;;;3.85;1.92;;;;;;;;;;5030318;28;20041;-83
2022/07/18 00:11:27;;;;;;;3.63;1.83;;;;;;;;;;5028319;28;20191;-84
2022/07/18 00:13:53;;;;;;;3.10;2.05;;;;;;;;;;5029253;28;20465;-84
2022/07/18 00:16:19;;;;;;;3.90;2.08;;;;;;;;;;5029351;28;20044;-84
2022/07/18 00:18:44;;;;;;;5.75;2.22;;;;;;;;;;5029013;28;20045;-83
2022/07/18 00:21:10;;;;;;;2.65;1.90;;;;;;;;;;5028460;28;20190;-83
2022/07/18 00:23:36;;;;;;;2.55;2.00;;;;;;;;;;5028938;28;20415;-83
2022/07/18 00:26:01;;;;;;;3.03;1.98;;;;;;;;;;5028148;28;20042;-83
2022/07/18 00:28:27;;;;;;;3.20;2.00;;;;;;;;;;5028793;28;20038;-85
2022/07/18 00:30:52;;;;;;;3.80;2.00;;;;;;;;;;5027283;28;20040;-83
2022/07/18 00:33:18;;;;;;;3.47;2.30;;;;;;;;;;5028667;28;20053;-83
2022/07/18 00:35:43;;;;;;;2.58;1.80;;;;;;;;;;5028458;28;20041;-84
2022/07/18 00:38:09;;;;;;;2.40;1.90;;;;;;;;;;5028263;28;20030;-82
2022/07/18 00:40:34;;;;;;;3.30;2.10;;;;;;;;;;5026707;28;20034;-83
2022/07/18 00:43:00;;;;;;;2.78;1.90;;;;;;;;;;5029356;28;20068;-83
2022/07/18 00:45:26;;;;;;;2.33;1.85;;;;;;;;;;5028586;28;20033;-83
2022/07/18 00:47:51;;;;;;;3.15;2.00;;;;;;;;;;5026944;28;20037;-83
2022/07/18 00:50:19;;;;;;;3.15;2.10;;;;;;;;;;5028953;28;20094;-83
2022/07/18 00:52:44;;;;;;;3.20;2.00;;;;;;;;;;5028690;28;20042;-82
2022/07/18 00:55:10;;;;;;;3.58;2.08;;;;;;;;;;5028525;28;20037;-82
2022/07/18 00:57:38;;;;;;;3.60;2.13;;;;;;;;;;5027269;28;20044;-82
2022/07/18 01:02:51;;;;;;;3.00;2.03;;;;;;;;;;5026885;28;20041;-83
2022/07/18 01:05:17;;;;;;;3.55;2.38;;;;;;;;;;5026718;28;20038;-82
2022/07/18 01:07:42;;;;;;;2.95;2.10;;;;;;;;;;5028327;28;20041;-82
2022/07/18 01:10:08;;;;;;;3.40;2.15;;;;;;;;;;5028176;28;20025;-83
2022/07/18 01:12:34;;;;;;;2.55;2.25;;;;;;;;;;5027872;28;20053;-82
2022/07/18 01:14:59;;;;;;;2.50;1.98;;;;;;;;;;5028509;28;20033;-83
2022/07/18 01:17:25;;;;;;;2.72;1.90;;;;;;;;;;5027797;28;20041;-82
2022/07/18 01:19:52;;;;;;;4.75;2.33;;;;;;;;;;5027775;28;20042;-82
2022/07/18 01:22:20;;;;;;;5.93;2.20;;;;;;;;;;5026558;28;20533;-82
2022/07/18 01:24:46;;;;;;;2.47;2.03;;;;;;;;;;5027740;28;20093;-82
2022/07/18 01:27:16;;;;;;;3.63;2.10;;;;;;;;;;5027347;28;20041;-82
2022/07/18 01:29:43;;;;;;;3.72;2.30;;;;;;;;;;5027738;28;20037;-83
2022/07/18 01:32:09;;;;;;;4.93;1.92;;;;;;;;;;5027990;28;20046;-83
2022/07/18 01:34:35;;;;;;;4.43;2.13;;;;;;;;;;5027288;28;20045;-82
2022/07/18 01:37:01;;;;;;;3.25;2.10;;;;;;;;;;5026975;28;20160;-81
2022/07/18 01:39:27;;;;;;;4.95;2.30;;;;;;;;;;5026878;28;20025;-82
2022/07/18 01:42:03;;;;;;;2.95;2.17;;;;;;;;;;5027807;28;20056;-82
2022/07/18 01:44:29;;;;;;;2.85;2.25;;;;;;;;;;5027986;28;20072;-82
2022/07/18 01:47:01;;;;;;;3.10;2.00;;;;;;;;;;5026492;28;20042;-82
2022/07/18 01:49:29;;;;;;;3.13;2.22;;;;;;;;;;5026737;28;20040;-82
2022/07/18 01:51:56;;;;;;;3.28;2.13;;;;;;;;;;5026588;28;20041;-83
2022/07/18 01:54:23;;;;;;;2.75;2.00;;;;;;;;;;5027082;28;20069;-82
2022/07/18 01:56:49;;;;;;;2.92;2.20;;;;;;;;;;5027368;28;20045;-82
2022/07/18 01:59:16;;;;;;;3.13;2.20;;;;;;;;;;5027037;28;20037;-82
2022/07/18 02:01:41;;;;;;;3.33;2.10;;;;;;;;;;5027355;28;20042;-82
2022/07/18 02:04:07;;;;;;;3.33;2.10;;;;;;;;;;5027167;28;20056;-82
2022/07/18 02:06:32;;;;;;;2.30;2.00;;;;;;;;;;5042230;28;20042;-82
2022/07/18 02:08:58;;;;;;;4.68;2.17;;;;;;;;;;5025575;28;20037;-82
2022/07/18 02:11:23;;;;;;;7.38;2.33;;;;;;;;;;5027104;28;20079;-82
2022/07/18 02:13:49;;;;;;;4.53;2.10;;;;;;;;;;5024650;28;20049;-82
2022/07/18 02:16:14;;;;;;;2.35;1.90;;;;;;;;;;5026995;28;20041;-82
2022/07/18 02:18:40;;;;;;;4.28;2.45;;;;;;;;;;5025471;28;20097;-82
2022/07/18 02:21:05;;;;;;;5.13;2.10;;;;;;;;;;5025143;28;20088;-82
2022/07/18 02:23:31;;;;;;;2.80;2.08;;;;;;;;;;5027162;28;20375;-82
2022/07/18 02:25:56;;;;;;;5.05;2.10;;;;;;;;;;5027091;28;20022;-82
2022/07/18 02:28:22;;;;;;;4.55;2.15;;;;;;;;;;5026119;28;20030;-83
2022/07/18 02:30:48;;;;;;;2.25;2.00;;;;;;;;;;5025570;28;20065;-82
2022/07/18 02:33:15;;;;;;;2.30;2.10;;;;;;;;;;5026470;28;20042;-84
2022/07/18 02:35:41;;;;;;;3.17;2.30;;;;;;;;;;5025326;28;20067;-83
2022/07/18 02:38:07;;;;;;;3.47;2.30;;;;;;;;;;5025745;28;20097;-84
2022/07/18 02:40:33;;;;;;;2.70;2.20;;;;;;;;;;5026079;28;20041;-82
2022/07/18 02:42:58;;;;;;;3.03;2.25;;;;;;;;;;5026187;28;20037;-83
2022/07/18 02:45:24;;;;;;;4.45;2.42;;;;;;;;;;5025330;28;20038;-83
2022/07/18 02:47:49;;;;;;;3.53;2.15;;;;;;;;;;5024836;28;20030;-82
2022/07/18 02:50:15;;;;;;;3.28;2.22;;;;;;;;;;5029632;28;20026;-82
2022/07/18 02:52:41;;;;;;;3.05;2.38;;;;;;;;;;5030185;28;20040;-82
2022/07/18 02:55:08;;;;;;;3.65;2.30;;;;;;;;;;5029815;28;20044;-82
2022/07/18 02:57:33;;;;;;;2.97;2.30;;;;;;;;;;5029202;28;20038;-83
2022/07/18 02:59:59;;;;;;;7.57;2.25;;;;;;;;;;5029488;28;20372;-82
2022/07/18 03:02:25;;;;;;;3.13;2.50;;;;;;;;;;5028927;28;20037;-82
2022/07/18 03:04:51;;;;;;;3.67;2.47;;;;;;;;;;5029965;28;20086;-83
2022/07/18 03:07:16;;;;;;;3.63;2.35;;;;;;;;;;5029703;28;20105;-82
2022/07/18 03:09:42;;;;;;;4.32;2.38;;;;;;;;;;5029206;28;20512;-82
2022/07/18 03:12:08;;;;;;;3.42;2.30;;;;;;;;;;5029521;28;20048;-82
2022/07/18 03:14:33;;;;;;;3.13;2.10;;;;;;;;;;5029709;28;20037;-82
2022/07/18 03:16:59;;;;;;;2.95;2.17;;;;;;;;;;5028676;28;20053;-82
2022/07/18 03:19:24;;;;;;;2.53;2.10;;;;;;;;;;5028626;28;20049;-82
2022/07/18 03:21:50;;;;;;;5.32;2.45;;;;;;;;;;5029960;28;20042;-83
2022/07/18 03:24:15;;;;;;;3.63;2.10;;;;;;;;;;5029305;28;20037;-83
2022/07/18 03:26:42;;;;;;;4.68;2.20;;;;;;;;;;5029225;28;20048;-83
2022/07/18 03:29:08;;;;;;;4.43;2.00;;;;;;;;;;5028113;28;20122;-83
2022/07/18 03:31:33;;;;;;;2.80;2.33;;;;;;;;;;5029562;28;20523;-83
2022/07/18 03:33:59;;;;;;;3.55;2.30;;;;;;;;;;5028555;28;20068;-82
2022/07/18 03:36:24;;;;;;;3.30;2.45;;;;;;;;;;5029266;28;20048;-82
2022/07/18 03:38:51;;;;;;;4.47;2.30;;;;;;;;;;5029540;28;20050;-82
2022/07/18 03:41:16;;;;;;;2.80;2.30;;;;;;;;;;5027965;28;20030;-82
2022/07/18 03:43:42;;;;;;;3.40;2.45;;;;;;;;;;5028973;28;20068;-82
2022/07/18 03:46:08;;;;;;;2.65;2.20;;;;;;;;;;5027962;28;20041;-82
2022/07/18 03:48:34;;;;;;;4.55;2.20;;;;;;;;;;5028888;28;20025;-82
2022/07/18 03:51:00;;;;;;;3.38;2.28;;;;;;;;;;5028987;28;20030;-82
2022/07/18 03:53:26;;;;;;;3.63;2.30;;;;;;;;;;5028619;28;20068;-82
2022/07/18 03:55:52;;;;;;;4.00;2.30;;;;;;;;;;5028727;28;20091;-82
2022/07/18 03:58:17;;;;;;;2.92;2.30;;;;;;;;;;5027134;28;20111;-82
2022/07/18 04:00:43;;;;;;;2.83;2.40;;;;;;;;;;5027342;28;20121;-82
2022/07/18 04:03:09;;;;;;;3.30;2.42;;;;;;;;;;5028902;28;20034;-82
2022/07/18 04:05:34;;;;;;;4.05;2.67;;;;;;;;;;5028225;28;20107;-82
2022/07/18 04:08:00;;;;;;;3.80;2.42;;;;;;;;;;5029041;28;20041;-82
2022/07/18 04:10:26;;;;;;;9.48;5.05;;;;;;;;;;5027938;28;20038;-82
2022/07/18 04:12:53;;;;;;;6.35;3.55;;;;;;;;;;5028839;28;20109;-82
2022/07/18 04:15:21;;;;;;;3.30;2.42;;;;;;;;;;5027871;28;20030;-81
2022/07/18 04:17:47;;;;;;;3.63;2.55;;;;;;;;;;5028272;28;20116;-82
2022/07/18 04:20:13;;;;;;;8.57;2.30;;;;;;;;;;5028547;28;20030;-82
2022/07/18 04:22:46;;;;;;;5.50;2.83;;;;;;;;;;5027658;28;20033;-82
2022/07/18 04:25:11;;;;;;;4.20;2.15;;;;;;;;;;5026944;28;20038;-82
2022/07/18 04:27:37;;;;;;;3.50;2.20;;;;;;;;;;5027709;28;20069;-83
2022/07/18 04:30:04;;;;;;;4.30;2.40;;;;;;;;;;5027644;28;20045;-83
2022/07/18 04:32:29;;;;;;;3.22;2.58;;;;;;;;;;5027171;28;20038;-83
2022/07/18 04:34:54;;;;;;;2.85;2.30;;;;;;;;;;5026675;28;20042;-83
2022/07/18 04:37:20;;;;;;;5.07;2.42;;;;;;;;;;5027315;28;20038;-83
2022/07/18 04:39:45;;;;;;;5.30;2.25;;;;;;;;;;5027946;28;20037;-83
2022/07/18 04:42:11;;;;;;;5.70;2.58;;;;;;;;;;5028283;28;20038;-83
2022/07/18 04:44:36;;;;;;;5.03;2.42;;;;;;;;;;5027539;28;20038;-83
2022/07/18 04:47:02;;;;;;;2.75;2.30;;;;;;;;;;5027881;28;20026;-84
2022/07/18 04:49:27;;;;;;;4.20;2.20;;;;;;;;;;5028261;28;20036;-81
2022/07/18 04:51:53;;;;;;;4.50;2.47;;;;;;;;;;5027224;28;20014;-82
2022/07/18 04:54:19;;;;;;;4.47;2.90;;;;;;;;;;5027214;28;20064;-83
2022/07/18 04:56:44;;;;;;;4.32;2.50;;;;;;;;;;5027033;28;20026;-82
2022/07/18 04:59:10;;;;;;;3.35;2.47;;;;;;;;;;5026482;28;20038;-82
2022/07/18 05:01:35;;;;;;;2.80;2.47;;;;;;;;;;5027927;28;20463;-81
2022/07/18 05:04:01;;;;;;;6.72;2.20;;;;;;;;;;5026679;28;20045;-82
2022/07/18 05:06:26;;;;;;;7.13;2.30;;;;;;;;;;5027009;28;20085;-84
2022/07/18 05:08:52;;;;;;;5.28;2.22;;;;;;;;;;5026828;28;20103;-82
2022/07/18 05:11:17;;;;;;;3.53;2.20;;;;;;;;;;5025715;28;20041;-82
2022/07/18 05:13:43;;;;;;;2.60;2.15;;;;;;;;;;5026538;28;20065;-82
2022/07/18 05:16:08;;;;;;;5.45;2.00;;;;;;;;;;5027097;28;20038;-83
2022/07/18 05:18:34;;;;;;;3.88;2.40;;;;;;;;;;5026290;28;20030;-82
2022/07/18 05:20:59;;;;;;;5.32;2.60;;;;;;;;;;5026433;28;20033;-82
2022/07/18 05:23:25;;;;;;;4.13;2.20;;;;;;;;;;5027695;28;20093;-82
2022/07/18 05:25:50;;;;;;;2.97;2.35;;;;;;;;;;5026346;28;20038;-83
2022/07/18 05:28:16;;;;;;;4.00;2.35;;;;;;;;;;5027292;28;20033;-82
2022/07/18 05:30:41;;;;;;;5.07;2.35;;;;;;;;;;5009787;28;20065;-82
2022/07/18 05:33:07;;;;;;;5.00;2.22;;;;;;;;;;5027364;28;20398;-82
2022/07/18 05:35:33;;;;;;;2.80;2.20;;;;;;;;;;5026509;28;20479;-83
2022/07/18 05:37:58;;;;;;;4.80;2.38;;;;;;;;;;5026744;28;20045;-82
2022/07/18 05:40:24;;;;;;;3.78;2.53;;;;;;;;;;5027539;28;20042;-82
2022/07/18 05:42:49;;;;;;;2.80;2.00;;;;;;;;;;5024388;28;20037;-81
2022/07/18 05:45:15;;;;;;;2.80;2.10;;;;;;;;;;5025471;28;20037;-83
2022/07/18 05:47:41;;;;;;;3.17;2.15;;;;;;;;;;5025872;28;20033;-86
2022/07/18 05:50:07;;;;;;;5.18;2.03;;;;;;;;;;5026449;28;20038;-82
2022/07/18 05:52:33;;;;;;;3.53;2.10;;;;;;;;;;5026027;28;20041;-84
2022/07/18 05:54:59;;;;;;;4.18;2.20;;;;;;;;;;5025847;28;20030;-83
2022/07/18 05:57:24;;;;;;;4.32;2.20;;;;;;;;;;5026333;28;20045;-82
2022/07/18 05:59:50;;;;;;;3.35;1.83;;;;;;;;;;5026107;28;20034;-82
2022/07/18 06:02:15;;;;;;;3.35;1.90;;;;;;;;;;5026154;28;20514;-82
2022/07/18 06:04:41;;;;;;;3.67;2.00;;;;;;;;;;5027630;28;20053;-83
2022/07/18 06:07:07;;;;;;;4.50;2.30;;;;;;;;;;5028007;28;20037;-83
2022/07/18 06:09:32;;;;;;;4.22;1.90;;;;;;;;;;5027716;28;20041;-83
2022/07/18 06:11:59;;;;;;;5.10;2.13;;;;;;;;;;5028510;28;20034;-83
2022/07/18 06:14:27;;;;;;;4.78;2.00;;;;;;;;;;5027782;28;20068;-82
2022/07/18 06:16:52;;;;;;;4.05;1.95;;;;;;;;;;5008742;28;20128;-82
2022/07/18 06:19:18;;;;;;;2.58;2.00;;;;;;;;;;5027012;28;20045;-82
2022/07/18 06:21:43;;;;;;;4.30;2.03;;;;;;;;;;5024761;28;20056;-83
2022/07/18 06:24:09;;;;;;;3.97;2.00;;;;;;;;;;5022764;28;20044;-81
2022/07/18 06:26:34;;;;;;;3.58;2.22;;;;;;;;;;5024797;28;20042;-83
2022/07/18 06:29:00;;;;;;;3.65;2.00;;;;;;;;;;5024635;28;20623;-82
2022/07/18 06:31:25;;;;;;;3.42;2.03;;;;;;;;;;5023916;28;20116;-83
2022/07/18 06:33:51;;;;;;;3.38;2.00;;;;;;;;;;5024830;28;20049;-81
2022/07/18 06:36:17;;;;;;;3.63;2.22;;;;;;;;;;5023985;28;20038;-83
2022/07/18 06:38:43;;;;;;;4.00;2.17;;;;;;;;;;5025579;28;20046;-83
2022/07/18 06:41:08;;;;;;;5.20;2.30;;;;;;;;;;5024432;28;20132;-83
2022/07/18 06:43:34;;;;;;;5.20;2.30;;;;;;;;;;5024690;28;20061;-83
2022/07/18 06:45:59;;;;;;;3.17;2.00;;;;;;;;;;5025096;28;20037;-84
2022/07/18 06:48:25;;;;;;;5.30;2.15;;;;;;;;;;5024420;28;20033;-84
2022/07/18 06:50:50;;;;;;;2.47;1.80;;;;;;;;;;5025217;28;20041;-84
2022/07/18 06:53:16;;;;;;;4.40;2.20;;;;;;;;;;5024840;28;20033;-84
2022/07/18 06:55:41;;;;;;;3.83;1.77;;;;;;;;;;5023546;28;20068;-84
2022/07/18 06:58:07;;;;;;;3.08;1.90;;;;;;;;;;5024507;28;20053;-81
2022/07/18 07:00:32;;;;;;;3.08;1.88;;;;;;;;;;5006629;28;20540;-83
2022/07/18 07:02:58;;;;;;;3.78;1.70;;;;;;;;;;5025616;28;20057;-83
2022/07/18 07:05:24;;;;;;;4.70;2.00;;;;;;;;;;5023783;28;20128;-83
2022/07/18 07:07:50;;;;;;;3.20;1.80;;;;;;;;;;5023760;28;20041;-83
2022/07/18 07:10:17;;;;;;;2.28;1.77;;;;;;;;;;5024440;28;20034;-83
2022/07/18 07:12:48;;;;;;;3.45;1.90;;;;;;;;;;5023605;28;20042;-83
2022/07/18 07:15:14;;;;;;;5.45;1.95;;;;;;;;;;5024355;28;20038;-83
2022/07/18 07:17:40;;;;;;;2.78;1.90;;;;;;;;;;5024666;28;20053;-83
2022/07/18 07:20:07;;;;;;;2.80;1.65;;;;;;;;;;5024358;28;20038;-83
2022/07/18 07:22:41;;;;;;;4.18;1.70;;;;;;;;;;5024069;28;20034;-83
2022/07/18 07:25:08;;;;;;;2.67;1.73;;;;;;;;;;5025263;28;20034;-83
2022/07/18 07:27:34;;;;;;;2.50;1.77;;;;;;;;;;5024466;28;20084;-84
2022/07/18 07:29:59;;;;;;;5.60;1.85;;;;;;;;;;5026021;28;20034;-84
2022/07/18 07:32:24;;;;;;;3.25;1.73;;;;;;;;;;5024133;28;20063;-84
2022/07/18 07:34:50;;;;;;;3.08;1.73;;;;;;;;;;5027305;28;20030;-84
2022/07/18 07:37:15;;;;;;;3.00;1.75;;;;;;;;;;5030262;28;20128;-84
2022/07/18 07:39:41;;;;;;;5.25;1.95;;;;;;;;;;5028890;28;20071;-84
2022/07/18 07:42:06;;;;;;;2.85;1.58;;;;;;;;;;5029988;28;20033;-84
2022/07/18 07:44:32;;;;;;;3.22;1.80;;;;;;;;;;5027035;28;20029;-85
2022/07/18 07:46:59;;;;;;;6.15;1.70;;;;;;;;;;5027421;28;20473;-83
2022/07/18 07:49:25;;;;;;;5.47;1.80;;;;;;;;;;5032105;28;20045;-85
2022/07/18 07:51:50;;;;;;;2.17;1.77;;;;;;;;;;5047952;28;20048;-85
2022/07/18 07:54:16;;;;;;;3.15;2.03;;;;;;;;;;5032054;28;20101;-85
2022/07/18 07:56:41;;;;;;;5.55;2.03;;;;;;;;;;5033195;28;20038;-85
2022/07/18 07:59:07;;;;;;;3.00;1.60;;;;;;;;;;5031923;28;20034;-88
2022/07/18 08:01:32;;;;;;;3.45;1.75;;;;;;;;;;5031378;28;20038;-85
2022/07/18 08:03:58;;;;;;;5.50;1.75;;;;;;;;;;5030907;28;20073;-84
2022/07/18 08:06:24;;;;;;;2.80;1.83;;;;;;;;;;5031487;28;20041;-85
2022/07/18 08:08:49;;;;;;;2.92;1.88;;;;;;;;;;5046407;28;20041;-85
2022/07/18 08:11:15;;;;;;;4.80;1.80;;;;;;;;;;5032555;28;20042;-85
2022/07/18 08:13:40;;;;;;;2.72;1.70;;;;;;;;;;5032273;28;20041;-84
2022/07/18 08:16:06;;;;;;;3.92;1.80;;;;;;;;;;5031323;28;20037;-84
2022/07/18 08:18:31;;;;;;;4.55;1.92;;;;;;;;;;5029851;28;20037;-85
2022/07/18 08:20:57;;;;;;;3.55;1.70;;;;;;;;;;5032159;28;20034;-85
2022/07/18 08:23:22;;;;;;;4.22;1.70;;;;;;;;;;5030873;28;20088;-85
2022/07/18 08:25:48;;;;;;;2.47;1.70;;;;;;;;;;5030498;28;20447;-85
2022/07/18 08:28:13;;;;;;;2.22;1.60;;;;;;;;;;5029736;28;20413;-85
2022/07/18 08:30:40;;;;;;;3.20;1.70;;;;;;;;;;5028771;28;20097;-85
2022/07/18 08:33:06;;;;;;;7.95;1.83;;;;;;;;;;5030095;28;20038;-85
2022/07/18 08:35:33;;;;;;;2.55;1.70;;;;;;;;;;5029534;28;20064;-85
2022/07/18 08:38:00;;;;;;;5.30;1.80;;;;;;;;;;5029867;28;20054;-85
2022/07/18 08:40:25;;;;;;;5.80;2.00;;;;;;;;;;5029729;28;20052;-85
2022/07/18 08:42:56;;;;;;;3.88;1.70;;;;;;;;;;5030294;28;20065;-86
2022/07/18 08:45:24;;;;;;;3.55;1.92;;;;;;;;;;5030298;28;20042;-85
2022/07/18 08:47:50;;;;;;;4.05;1.70;;;;;;;;;;5028949;28;20113;-85
2022/07/18 08:50:15;;;;;;;3.03;2.00;;;;;;;;;;5029307;28;20038;-86
2022/07/18 08:52:42;;;;;;;3.92;1.90;;;;;;;;;;5031454;28;20037;-87
2022/07/18 08:55:08;;;;;;;3.50;1.70;;;;;;;;;;5027180;28;20101;-85
2022/07/18 08:57:33;;;;;;;3.95;1.70;;;;;;;;;;5028133;28;20033;-84
2022/07/18 08:59:59;;;;;;;2.63;1.90;;;;;;;;;;5029713;28;20065;-85
2022/07/18 09:02:27;;;;;;;3.70;2.10;;;;;;;;;;5031517;28;20508;-84
2022/07/18 09:04:54;;;;;;;2.95;1.90;;;;;;;;;;5031646;28;20470;-85
2022/07/18 09:07:25;;;;;;;4.60;1.90;;;;;;;;;;5031450;28;20038;-85
2022/07/18 09:10:08;;;;;;;3.83;1.90;;;;;;;;;;5030630;28;20021;-85
2022/07/18 09:12:34;;;;;;;2.72;2.13;;;;;;;;;;5030331;28;20494;-85
2022/07/18 09:15:10;;;;;;;3.00;2.15;;;;;;;;;;5031589;28;20117;-85
2022/07/18 09:17:35;;;;;;;2.42;1.67;;;;;;;;;;5031206;28;20068;-86
2022/07/18 09:20:08;;;;;;;6.18;1.77;;;;;;;;;;5013891;28;20025;-85
2022/07/18 09:22:39;;;;;;;4.55;2.00;;;;;;;;;;5031651;28;20064;-85
2022/07/18 09:25:16;;;;;;;4.68;2.10;;;;;;;;;;5032169;28;20033;-85
2022/07/18 09:27:44;;;;;;;4.43;2.03;;;;;;;;;;5031184;28;20098;-85
2022/07/18 09:30:25;;;;;;;6.32;2.08;;;;;;;;;;5031888;28;20074;-85
2022/07/18 09:33:04;;;;;;;2.88;2.00;;;;;;;;;;5047375;28;20037;-85
2022/07/18 09:35:34;;;;;;;2.65;1.98;;;;;;;;;;5030883;28;20048;-85
2022/07/18 09:38:01;;;;;;;3.00;2.10;;;;;;;;;;5030921;28;20033;-85
2022/07/18 09:40:33;;;;;;;5.28;2.20;;;;;;;;;;5031701;28;20069;-85
2022/07/18 09:43:01;;;;;;;3.60;2.30;;;;;;;;;;5030288;28;20030;-85
2022/07/18 09:45:54;;;;;;;3.55;2.00;;;;;;;;;;5030620;28;20029;-85
2022/07/18 09:48:24;;;;;;;6.18;2.22;;;;;;;;;;5022511;28;20057;-85
2022/07/18 09:50:55;;;;;;;4.20;2.03;;;;;;;;;;5030723;28;20062;-85
2022/07/18 09:53:23;;;;;;;6.18;1.92;;;;;;;;;;5031738;28;20114;-85
2022/07/18 09:55:54;;;;;;;5.38;1.83;;;;;;;;;;5030349;28;20042;-85
2022/07/18 09:58:22;;;;;;;5.50;2.10;;;;;;;;;;5030667;28;20042;-85
2022/07/18 10:00:48;;;;;;;5.03;2.40;;;;;;;;;;5030763;28;20030;-85
2022/07/18 10:03:14;;;;;;;7.63;2.20;;;;;;;;;;5029981;28;20041;-85
2022/07/18 10:05:41;;;;;;;3.10;1.83;;;;;;;;;;5030136;28;20040;-84
2022/07/18 10:08:09;;;;;;;6.78;2.10;;;;;;;;;;5029920;28;20037;-84
2022/07/18 10:10:36;;;;;;;2.95;1.92;;;;;;;;;;5046056;28;20029;-84
2022/07/18 10:13:03;;;;;;;10.85;2.00;;;;;;;;;;5030072;28;20108;-84
2022/07/18 10:15:31;;;;;;;3.92;1.80;;;;;;;;;;5028732;28;20088;-84
2022/07/18 10:17:57;;;;;;;6.28;1.70;;;;;;;;;;5028964;28;20234;-84
2022/07/18 10:20:37;;;;;;;4.53;1.80;;;;;;;;;;5030064;28;20088;-84
2022/07/18 10:23:22;;;;;;;2.75;1.75;;;;;;;;;;5029857;28;20053;-84
2022/07/18 10:26:13;;;;;;;2.50;1.70;;;;;;;;;;5029613;28;20077;-85
2022/07/18 10:29:00;;;;;;;2.65;1.67;;;;;;;;;;5029375;28;20034;-85
2022/07/18 10:31:42;;;;;;;4.00;1.70;;;;;;;;;;5028986;28;20029;-83
2022/07/18 10:34:07;;;;;;;4.15;1.50;;;;;;;;;;5030485;28;20124;-84
2022/07/18 10:36:51;;;;;;;3.95;1.85;;;;;;;;;;5029831;28;20026;-84
2022/07/18 10:39:26;;;;;;;3.88;1.70;;;;;;;;;;5030593;28;20030;-84
2022/07/18 10:41:51;;;;;;;5.22;1.70;;;;;;;;;;5029959;28;20042;-85
2022/07/18 10:44:28;;;;;;;3.47;1.70;;;;;;;;;;5030024;28;20022;-85
2022/07/18 10:47:03;;;;;;;2.92;1.70;;;;;;;;;;5028817;28;20038;-85
2022/07/18 10:49:47;;;;;;;2.58;1.50;;;;;;;;;;5029605;28;20026;-85
2022/07/18 10:52:33;;;;;;;3.80;1.65;;;;;;;;;;5029881;28;20099;-84
2022/07/18 10:55:01;;;;;;;2.65;1.60;;;;;;;;;;5029045;28;20030;-84
2022/07/18 10:57:28;;;;;;;2.75;1.70;;;;;;;;;;5027557;28;20049;-84
2022/07/18 11:00:04;;;;;;;2.03;1.50;;;;;;;;;;5029742;28;20077;-86
2022/07/18 11:02:32;;;;;;;1.70;1.50;;;;;;;;;;5043958;28;20105;-85
2022/07/18 11:04:58;;;;;;;4.40;1.60;;;;;;;;;;5027048;28;20042;-84
2022/07/18 11:07:23;;;;;;;2.20;1.42;;;;;;;;;;5027826;28;20044;-84
2022/07/18 11:09:50;;;;;;;7.15;1.70;;;;;;;;;;5029415;28;20483;-85
2022/07/18 11:12:40;;;;;;;1.80;1.38;;;;;;;;;;5032217;28;20040;-83
2022/07/18 11:15:07;;;;;;;3.92;1.42;;;;;;;;;;5032615;28;20038;-83
2022/07/18 11:17:51;;;;;;;3.47;1.50;;;;;;;;;;5047018;28;20564;-83
2022/07/18 11:20:41;;;;;;;4.65;1.40;;;;;;;;;;5029145;28;20022;-83
2022/07/18 11:23:24;;;;;;;4.88;1.40;;;;;;;;;;5031450;28;20046;-87
2022/07/18 11:25:54;;;;;;;2.42;1.48;;;;;;;;;;5027737;28;20029;-85
2022/07/18 11:28:20;;;;;;;4.40;1.67;;;;;;;;;;5026987;28;20049;-83
2022/07/18 11:30:59;;;;;;;4.45;1.45;;;;;;;;;;5025545;28;20120;-82
2022/07/18 11:33:28;;;;;;;3.65;1.45;;;;;;;;;;5022268;28;20042;-84
2022/07/18 11:36:08;;;;;;;3.35;1.70;;;;;;;;;;5025277;28;20042;-84
2022/07/18 11:38:37;;;;;;;2.67;1.50;;;;;;;;;;5007905;28;20034;-84
2022/07/18 11:41:03;;;;;;;3.15;1.52;;;;;;;;;;5024721;28;20506;-83
2022/07/18 11:43:29;;;;;;;3.03;1.45;;;;;;;;;;5026164;28;20102;-83
2022/07/18 11:46:05;;;;;;;2.20;1.42;;;;;;;;;;5022494;28;20455;-83
2022/07/18 11:48:32;;;;;;;2.92;1.80;;;;;;;;;;5024080;28;20033;-84
2022/07/18 11:50:58;;;;;;;7.20;1.75;;;;;;;;;;5025001;28;20014;-84
2022/07/18 11:53:25;;;;;;;1.92;1.50;;;;;;;;;;5023583;28;20101;-84
2022/07/18 11:55:52;;;;;;;2.60;1.52;;;;;;;;;;5024079;28;20029;-84
2022/07/18 11:58:18;;;;;;;2.92;1.30;;;;;;;;;;5022634;28;20088;-84
2022/07/18 12:00:46;;;;;;;3.35;1.70;;;;;;;;;;5024144;28;20034;-83
2022/07/18 12:03:16;;;;;;;2.60;1.50;;;;;;;;;;5023092;28;20113;-84
2022/07/18 12:05:48;;;;;;;2.80;1.42;;;;;;;;;;5019149;28;20042;-86
2022/07/18 12:08:30;;;;;;;2.47;1.55;;;;;;;;;;5023991;28;20398;-85
2022/07/18 12:11:03;;;;;;;2.20;1.40;;;;;;;;;;5026153;28;20037;-84
2022/07/18 12:13:42;;;;;;;2.30;1.40;;;;;;;;;;5027105;28;20026;-85
2022/07/18 12:16:07;;;;;;;2.05;1.40;;;;;;;;;;5029144;28;20114;-84
2022/07/18 12:18:33;;;;;;;2.53;1.40;;;;;;;;;;5027139;28;20021;-84
2022/07/18 12:21:09;;;;;;;4.45;1.48;;;;;;;;;;5029944;28;20041;-84
2022/07/18 12:23:35;;;;;;;3.58;1.55;;;;;;;;;;5029247;28;20042;-84
2022/07/18 12:26:03;;;;;;;2.97;1.45;;;;;;;;;;5028678;28;20091;-85
2022/07/18 12:28:29;;;;;;;2.58;1.60;;;;;;;;;;5029047;28;20048;-84
2022/07/18 12:30:55;;;;;;;4.10;1.58;;;;;;;;;;5028322;28;20029;-84
2022/07/18 12:33:21;;;;;;;2.47;1.30;;;;;;;;;;5028528;28;20084;-85
2022/07/18 12:35:58;;;;;;;3.30;1.70;;;;;;;;;;5027616;28;20038;-85
2022/07/18 12:38:24;;;;;;;2.55;1.63;;;;;;;;;;5029277;28;20051;-84
2022/07/18 12:41:01;;;;;;;3.03;1.45;;;;;;;;;;5029405;28;20028;-85
2022/07/18 12:43:28;;;;;;;3.50;1.35;;;;;;;;;;5027372;28;20048;-84
2022/07/18 12:45:56;;;;;;;3.53;1.20;;;;;;;;;;5028627;28;20025;-85
2022/07/18 12:48:21;;;;;;;3.50;1.30;;;;;;;;;;5025678;28;20056;-84
2022/07/18 12:51:00;;;;;;;5.40;1.40;;;;;;;;;;5026328;28;20034;-84
2022/07/18 12:53:27;;;;;;;2.17;1.33;;;;;;;;;;5025981;28;20053;-84
2022/07/18 12:55:52;;;;;;;1.67;1.30;;;;;;;;;;5027465;28;20026;-84
2022/07/18 12:58:18;;;;;;;3.38;1.48;;;;;;;;;;5027474;28;20052;-84
2022/07/18 13:00:46;;;;;;;3.30;1.40;;;;;;;;;;5026666;28;20034;-84
2022/07/18 13:03:11;;;;;;;2.80;1.42;;;;;;;;;;5025618;28;20041;-84
2022/07/18 13:05:37;;;;;;;3.95;1.45;;;;;;;;;;5027103;28;20022;-84
2022/07/18 13:08:03;;;;;;;1.45;1.27;;;;;;;;;;5026476;28;20128;-84
2022/07/18 13:10:28;;;;;;;2.30;1.50;;;;;;;;;;5026340;28;20113;-85
2022/07/18 13:12:54;;;;;;;3.30;1.40;;;;;;;;;;5026314;28;20652;-83
2022/07/18 13:15:20;;;;;;;4.35;1.40;;;;;;;;;;5026156;28;20056;-84
2022/07/18 13:17:48;;;;;;;2.05;1.30;;;;;;;;;;5026872;28;20040;-82
2022/07/18 13:20:15;;;;;;;1.88;1.30;;;;;;;;;;5026830;28;20098;-84
2022/07/18 13:22:41;;;;;;;2.33;1.25;;;;;;;;;;5026583;28;20038;-82
2022/07/18 13:25:08;;;;;;;3.58;1.23;;;;;;;;;;5027842;28;20134;-84
2022/07/18 13:27:35;;;;;;;2.05;1.20;;;;;;;;;;5011288;28;20056;-84
2022/07/18 13:30:00;;;;;;;2.05;1.33;;;;;;;;;;5028081;28;20037;-84
2022/07/18 13:32:28;;;;;;;1.38;1.17;;;;;;;;;;5027519;28;20029;-84
2022/07/18 13:34:53;;;;;;;1.98;1.10;;;;;;;;;;5026099;28;20413;-83
2022/07/18 13:37:19;;;;;;;2.13;1.33;;;;;;;;;;5026847;28;20042;-82
2022/07/18 13:39:44;;;;;;;2.78;1.40;;;;;;;;;;5027631;28;20130;-84
2022/07/18 13:42:10;;;;;;;1.55;1.02;;;;;;;;;;5027228;28;20033;-84
2022/07/18 13:44:35;;;;;;;4.15;1.55;;;;;;;;;;5027564;28;20037;-84
2022/07/18 13:47:01;;;;;;;2.97;1.20;;;;;;;;;;5024992;28;20036;-83
2022/07/18 13:49:27;;;;;;;2.10;1.00;;;;;;;;;;5029508;28;20041;-84
2022/07/18 13:51:52;;;;;;;1.73;1.17;;;;;;;;;;5025373;28;20112;-84
2022/07/18 13:54:18;;;;;;;4.13;1.25;;;;;;;;;;5025257;28;20061;-83
2022/07/18 13:56:46;;;;;;;1.55;1.10;;;;;;;;;;5009515;28;20558;-84
2022/07/18 13:59:11;;;;;;;2.17;1.20;;;;;;;;;;5010209;28;20022;-85
2022/07/18 14:01:37;;;;;;;1.52;1.02;;;;;;;;;;5030282;28;20053;-83
2022/07/18 14:04:03;;;;;;;2.30;1.20;;;;;;;;;;5029381;28;20041;-84
2022/07/18 14:06:28;;;;;;;2.15;1.20;;;;;;;;;;5025693;28;20025;-85
2022/07/18 14:08:54;;;;;;;2.10;1.10;;;;;;;;;;5027647;28;20034;-85
2022/07/18 14:11:19;;;;;;;1.85;1.23;;;;;;;;;;5027010;28;20090;-85
2022/07/18 14:13:46;;;;;;;3.83;1.27;;;;;;;;;;5026963;28;20025;-85
2022/07/18 14:16:13;;;;;;;2.10;1.27;;;;;;;;;;5027104;28;20017;-84
2022/07/18 14:18:38;;;;;;;2.85;1.27;;;;;;;;;;5025712;28;20030;-85
2022/07/18 14:21:04;;;;;;;1.20;1.10;;;;;;;;;;5026688;28;20093;-84
2022/07/18 14:23:29;;;;;;;4.75;1.50;;;;;;;;;;5026488;28;20095;-83
2022/07/18 14:25:55;;;;;;;4.05;1.35;;;;;;;;;;5023380;28;20044;-84
2022/07/18 14:28:20;;;;;;;2.53;1.20;;;;;;;;;;5024668;28;20050;-84
2022/07/18 14:30:46;;;;;;;57.42;4.00;;;;;;;;;;5025663;28;20030;-83
2022/07/18 14:33:11;;;;;;;11.13;1.58;;;;;;;;;;5022613;28;20045;-86
2022/07/18 14:35:38;;;;;;;5.35;1.35;;;;;;;;;;5020318;28;20096;-86
2022/07/18 14:38:04;;;;;;;1.65;1.20;;;;;;;;;;5022662;28;20045;-86
2022/07/18 14:40:29;;;;;;;3.47;1.42;;;;;;;;;;5022805;28;20049;-87
2022/07/18 14:42:55;;;;;;;5.20;1.27;;;;;;;;;;5022501;28;20041;-86
2022/07/18 14:45:21;;;;;;;2.55;1.10;;;;;;;;;;5025719;28;20502;-88
2022/07/18 14:47:46;;;;;;;2.40;1.17;;;;;;;;;;5024077;28;20123;-86